createdAt,value
2023-01-11T00:03:58.186Z,0.63
2023-01-11T00:55:37.529Z,0.80
2023-01-11T03:37:46.897Z,0.22
2023-01-11T06:13:58.373Z,0.50
2023-01-11T06:19:45.790Z,0.65
2023-01-11T06:25:47.988Z,0.40
2023-01-11T06:28:16.155Z,0.75
2023-01-11T06:30:44.740Z,0.75
2023-01-11T06:33:12.465Z,0.82
2023-01-11T06:35:40.992Z,1.25
2023-01-11T06:38:10.787Z,0.90
2023-01-11T06:40:39.369Z,1.25
2023-01-11T06:43:10.989Z,1.00
2023-01-11T06:49:56.118Z,1.20
2023-01-11T06:55:50.646Z,1.30
2023-01-11T07:30:07.921Z,2.20
2023-01-11T07:35:56.431Z,2.45
2023-01-11T07:38:24.281Z,2.55
2023-01-11T07:40:52.725Z,2.55
2023-01-11T07:43:22.963Z,2.40
2023-01-11T07:45:53.974Z,2.75
2023-01-11T07:55:45.377Z,2.65
2023-01-11T08:04:27.167Z,2.45
2023-01-11T08:06:03.799Z,2.63
2023-01-11T08:06:17.307Z,2.28
2023-01-11T08:08:32.045Z,2.55
2023-01-11T08:17:57.090Z,2.40
2023-01-11T08:20:31.171Z,1.90
2023-01-11T08:23:03.492Z,2.17
2023-01-11T08:25:31.258Z,2.33
2023-01-11T08:28:00.827Z,2.10
2023-01-11T08:30:28.751Z,0.85
2023-01-11T08:32:57.150Z,1.33
2023-01-11T08:35:25.260Z,1.23
2023-01-11T08:37:53.089Z,0.70
2023-01-11T08:40:24.025Z,1.10
2023-01-11T08:42:55.155Z,1.48
2023-01-11T08:45:22.939Z,1.15
2023-01-11T08:47:51.938Z,1.02
2023-01-11T08:50:20.969Z,0.80
2023-01-11T08:52:50.704Z,1.20
2023-01-11T08:55:18.598Z,0.98
2023-01-11T08:57:47.554Z,0.60
2023-01-11T09:00:16.005Z,0.98
2023-01-11T09:02:45.309Z,1.50
2023-01-11T09:05:13.262Z,0.70
2023-01-11T09:07:41.506Z,0.93
2023-01-11T09:10:09.888Z,0.80
2023-01-11T09:12:37.515Z,1.20
2023-01-11T09:15:07.334Z,1.25
2023-01-11T09:17:34.979Z,1.10
2023-01-11T09:20:02.687Z,0.95
2023-01-11T09:22:30.593Z,0.52
2023-01-11T09:25:00.149Z,0.90
2023-01-11T09:31:33.940Z,1.48
2023-01-11T09:34:01.862Z,0.82
2023-01-11T09:36:32.126Z,1.40
2023-01-11T09:39:01.812Z,0.70
2023-01-11T09:41:36.173Z,1.13
2023-01-11T09:44:10.174Z,0.85
2023-01-11T09:46:42.888Z,0.40
2023-01-11T09:49:15.973Z,1.00
2023-01-11T09:51:44.092Z,1.23
2023-01-11T09:54:17.283Z,1.17
2023-01-11T09:56:47.990Z,1.13
2023-01-11T09:59:29.906Z,1.00
2023-01-11T10:02:05.420Z,0.55
2023-01-11T10:04:41.059Z,1.23
2023-01-11T10:07:23.032Z,1.08
2023-01-11T10:18:31.576Z,0.98
2023-01-11T10:19:12.234Z,1.15
2023-01-11T10:21:42.638Z,1.15
2023-01-11T10:24:14.735Z,1.27
2023-01-11T10:26:42.569Z,0.70
2023-01-11T10:29:33.245Z,0.82
2023-01-11T10:32:18.684Z,0.80
2023-01-11T10:35:14.412Z,0.90
2023-01-11T10:37:54.359Z,0.70
2023-01-11T10:40:37.633Z,1.00
2023-01-11T10:43:12.359Z,1.10
2023-01-11T10:45:41.359Z,1.00
2023-01-11T10:48:13.290Z,1.67
2023-01-11T10:50:42.800Z,1.10
2023-01-11T10:53:17.930Z,1.13
2023-01-11T10:55:48.194Z,0.82
2023-01-11T10:58:24.672Z,0.55
2023-01-11T11:01:00.966Z,1.45
2023-01-11T11:03:39.723Z,1.30
2023-01-11T11:06:10.881Z,1.20
2023-01-11T11:08:44.649Z,0.77
2023-01-11T11:11:18.537Z,1.05
2023-01-11T11:13:49.690Z,0.75
2023-01-11T11:16:23.969Z,1.13
2023-01-11T11:18:52.328Z,1.00
2023-01-11T11:21:21.979Z,0.90
2023-01-11T11:23:54.986Z,0.73
2023-01-11T11:26:23.972Z,1.10
2023-01-11T11:32:55.895Z,1.13
2023-01-11T11:35:37.492Z,0.90
2023-01-11T11:38:05.390Z,0.73
2023-01-11T11:40:35.492Z,0.73
2023-01-11T11:43:17.762Z,1.48
2023-01-11T11:45:52.135Z,0.55
2023-01-11T11:48:19.995Z,0.65
2023-01-11T11:50:48.310Z,0.77
2023-01-11T11:53:21.908Z,1.00
2023-01-11T11:55:52.289Z,1.15
2023-01-11T11:58:21.281Z,1.23
2023-01-11T12:00:50.128Z,0.70
2023-01-11T12:03:20.010Z,1.02
2023-01-11T12:05:52.711Z,0.68
2023-01-11T12:08:21.699Z,1.00
2023-01-11T12:10:53.349Z,0.60
2023-01-11T12:13:27.369Z,0.70
2023-01-11T12:15:57.831Z,1.13
2023-01-11T12:18:26.925Z,0.82
2023-01-11T12:20:55.447Z,1.13
2023-01-11T12:23:24.314Z,0.82
2023-01-11T12:26:07.271Z,1.02
2023-01-11T12:29:15.928Z,1.20
2023-01-11T12:31:50.675Z,0.90
2023-01-11T12:34:24.445Z,0.50
2023-01-11T12:36:56.480Z,1.20
2023-01-11T12:39:31.449Z,0.90
2023-01-11T12:42:08.325Z,1.33
2023-01-11T12:44:53.040Z,1.05
2023-01-11T12:47:45.453Z,1.48
2023-01-11T12:50:19.347Z,1.15
2023-01-11T12:52:52.601Z,0.80
2023-01-11T12:55:28.200Z,1.00
2023-01-11T12:58:01.802Z,0.68
2023-01-11T13:00:48.675Z,1.10
2023-01-11T13:03:40.216Z,0.22
2023-01-11T13:06:11.399Z,0.93
2023-01-11T13:08:46.231Z,1.05
2023-01-11T13:11:35.265Z,1.35
2023-01-11T13:14:11.220Z,0.90
2023-01-11T13:16:44.443Z,0.68
2023-01-11T13:19:17.443Z,1.20
2023-01-11T13:21:53.166Z,0.93
2023-01-11T13:24:25.415Z,1.10
2023-01-11T13:27:22.912Z,1.17
2023-01-11T13:29:52.084Z,1.23
2023-01-11T13:32:22.142Z,0.85
2023-01-11T13:34:52.993Z,1.15
2023-01-11T13:37:22.492Z,0.65
2023-01-11T13:39:53.867Z,1.10
2023-01-11T13:42:23.742Z,0.82
2023-01-11T13:45:00.828Z,1.20
2023-01-11T13:47:32.649Z,1.13
2023-01-11T13:50:03.532Z,0.80
2023-01-11T13:52:41.197Z,1.23
2023-01-11T13:55:20.814Z,0.75
2023-01-11T13:57:54.481Z,1.02
2023-01-11T14:00:24.604Z,0.57
2023-01-11T14:02:55.843Z,1.00
2023-01-11T14:05:25.123Z,1.00
2023-01-11T14:08:02.744Z,1.45
2023-01-11T14:10:39.397Z,1.15
2023-01-11T14:13:12.725Z,1.00
2023-01-11T14:15:42.179Z,0.95
2023-01-11T14:18:17.942Z,1.17
2023-01-11T14:21:05.808Z,0.68
2023-01-11T14:23:39.543Z,1.33
2023-01-11T14:26:31.144Z,1.02
2023-01-11T14:29:04.560Z,1.17
2023-01-11T14:31:41.029Z,0.82
2023-01-11T14:34:27.339Z,0.70
2023-01-11T14:37:04.986Z,0.88
2023-01-11T14:39:46.187Z,0.75
2023-01-11T14:42:35.073Z,1.05
2023-01-11T14:45:18.442Z,1.17
2023-01-11T14:47:53.439Z,0.80
2023-01-11T14:50:29.029Z,1.10
2023-01-11T14:52:59.580Z,1.27
2023-01-11T14:55:28.893Z,1.00
2023-01-11T14:58:03.964Z,1.10
2023-01-11T15:01:04.772Z,1.10
2023-01-11T15:03:35.932Z,1.00
2023-01-11T15:06:10.670Z,0.77
2023-01-11T15:08:44.128Z,1.17
2023-01-11T15:11:32.814Z,0.90
2023-01-11T15:14:05.011Z,1.27
2023-01-11T15:16:51.061Z,0.88
2023-01-11T15:19:26.630Z,0.70
2023-01-11T15:21:55.740Z,0.95
2023-01-11T15:24:27.081Z,0.90
2023-01-11T15:26:55.049Z,0.70
2023-01-11T15:29:24.065Z,0.80
2023-01-11T15:32:04.980Z,0.70
2023-01-11T15:34:41.416Z,1.00
2023-01-11T15:37:17.630Z,0.85
2023-01-11T15:39:49.689Z,0.90
2023-01-11T15:42:38.916Z,0.93
2023-01-11T15:45:33.412Z,0.85
2023-01-11T15:48:13.055Z,0.80
2023-01-11T15:50:59.356Z,1.05
2023-01-11T15:53:38.630Z,0.93
2023-01-11T15:56:24.345Z,0.93
2023-01-11T15:59:25.375Z,1.13
2023-01-11T16:02:07.837Z,1.00
2023-01-11T16:04:40.491Z,0.80
2023-01-11T16:07:13.263Z,1.30
2023-01-11T16:09:59.276Z,1.33
2023-01-11T16:12:35.468Z,0.90
2023-01-11T16:15:10.225Z,0.93
2023-01-11T16:17:40.761Z,0.95
2023-01-11T16:20:22.348Z,1.00
2023-01-11T16:22:51.761Z,0.88
2023-01-11T16:25:20.760Z,0.70
2023-01-11T16:27:52.626Z,0.70
2023-01-11T16:30:20.650Z,1.10
2023-01-11T16:32:48.238Z,0.68
2023-01-11T16:35:21.192Z,0.82
2023-01-11T16:37:51.371Z,1.02
2023-01-11T16:40:20.671Z,0.95
2023-01-11T16:42:50.663Z,0.60
2023-01-11T16:45:20.466Z,0.90
2023-01-11T16:48:02.368Z,1.00
2023-01-11T16:50:31.738Z,1.45
2023-01-11T16:53:00.750Z,0.85
2023-01-11T16:55:34.080Z,0.82
2023-01-11T16:58:02.968Z,1.10
2023-01-11T17:00:35.774Z,0.55
2023-01-11T17:03:06.689Z,0.98
2023-01-11T17:05:35.651Z,0.70
2023-01-11T17:08:19.282Z,1.15
2023-01-11T17:10:51.572Z,1.30
2023-01-11T17:13:44.516Z,0.52
2023-01-11T17:16:14.181Z,0.95
2023-01-11T17:18:42.455Z,1.05
2023-01-11T17:21:16.254Z,1.27
2023-01-11T17:23:44.400Z,1.02
2023-01-11T17:26:15.369Z,0.93
2023-01-11T17:28:44.917Z,0.60
2023-01-11T17:31:18.731Z,1.10
2023-01-11T17:33:48.104Z,1.30
2023-01-11T17:36:17.362Z,1.25
2023-01-11T17:38:45.289Z,1.20
2023-01-11T17:41:35.253Z,1.00
2023-01-11T17:44:20.866Z,1.63
2023-01-11T17:46:48.905Z,1.08
2023-01-11T17:49:21.574Z,0.82
2023-01-11T17:51:50.655Z,0.50
2023-01-11T17:54:21.552Z,1.05
2023-01-11T17:56:55.257Z,0.90
2023-01-11T17:59:23.583Z,0.40
2023-01-11T18:01:52.331Z,1.42
2023-01-11T18:04:20.824Z,0.70
2023-01-11T18:06:51.125Z,0.63
2023-01-11T18:09:23.398Z,0.82
2023-01-11T18:11:52.107Z,1.63
2023-01-11T18:14:20.957Z,1.10
2023-01-11T18:16:59.110Z,0.80
2023-01-11T18:19:32.454Z,0.60
2023-01-11T20:12:36.277Z,1.25
2023-01-11T20:23:34.245Z,1.60
2023-01-11T23:44:47.528Z,0.70
